sensor_id;sensor_type;location;lat;lon;timestamp;P1;durP1;ratioP1;P2;durP2;ratioP2
3149;SDS011;32503;47.748;8.960;2023-02-08T00:02:12;14.03;;;8.10;;
3149;SDS011;32503;47.748;8.960;2023-02-08T00:04:39;13.23;;;9.10;;
3149;SDS011;32503;47.748;8.960;2023-02-08T00:07:06;14.57;;;8.70;;
3149;SDS011;32503;47.748;8.960;2023-02-08T00:09:33;12.03;;;8.30;;
3149;SDS011;32503;47.748;8.960;2023-02-08T00:12:00;11.97;;;8.57;;
3149;SDS011;32503;47.748;8.960;2023-02-08T00:14:27;14.33;;;7.73;;
3149;SDS011;32503;47.748;8.960;2023-02-08T00:16:56;11.33;;;9.07;;
3149;SDS011;32503;47.748;8.960;2023-02-08T00:19:23;10.17;;;7.83;;
3149;SDS011;32503;47.748;8.960;2023-02-08T00:21:50;11.10;;;7.93;;
3149;SDS011;32503;47.748;8.960;2023-02-08T00:24:17;9.60;;;8.10;;
3149;SDS011;32503;47.748;8.960;2023-02-08T00:26:44;13.93;;;9.00;;
3149;SDS011;32503;47.748;8.960;2023-02-08T00:29:11;13.60;;;7.90;;
3149;SDS011;32503;47.748;8.960;2023-02-08T00:31:38;16.23;;;7.37;;
3149;SDS011;32503;47.748;8.960;2023-02-08T00:34:06;14.20;;;9.27;;
3149;SDS011;32503;47.748;8.960;2023-02-08T00:36:33;12.27;;;8.67;;
3149;SDS011;32503;47.748;8.960;2023-02-08T00:39:00;13.93;;;8.43;;
3149;SDS011;32503;47.748;8.960;2023-02-08T00:41:27;9.30;;;8.10;;
3149;SDS011;32503;47.748;8.960;2023-02-08T00:43:54;14.43;;;9.70;;
3149;SDS011;32503;47.748;8.960;2023-02-08T00:46:21;15.03;;;7.40;;
3149;SDS011;32503;47.748;8.960;2023-02-08T00:48:48;12.50;;;8.13;;
3149;SDS011;32503;47.748;8.960;2023-02-08T00:51:17;9.73;;;7.73;;
3149;SDS011;32503;47.748;8.960;2023-02-08T00:53:44;14.50;;;8.87;;
3149;SDS011;32503;47.748;8.960;2023-02-08T00:56:12;15.90;;;9.17;;
3149;SDS011;32503;47.748;8.960;2023-02-08T00:58:40;11.47;;;8.10;;
3149;SDS011;32503;47.748;8.960;2023-02-08T01:01:08;17.67;;;9.53;;
3149;SDS011;32503;47.748;8.960;2023-02-08T01:03:36;17.30;;;8.30;;
3149;SDS011;32503;47.748;8.960;2023-02-08T01:06:06;11.07;;;7.97;;
3149;SDS011;32503;47.748;8.960;2023-02-08T01:08:36;11.73;;;7.53;;
3149;SDS011;32503;47.748;8.960;2023-02-08T01:11:04;13.67;;;7.47;;
3149;SDS011;32503;47.748;8.960;2023-02-08T01:13:34;14.57;;;8.00;;
3149;SDS011;32503;47.748;8.960;2023-02-08T01:16:06;16.40;;;8.37;;
3149;SDS011;32503;47.748;8.960;2023-02-08T01:18:36;9.50;;;6.67;;
3149;SDS011;32503;47.748;8.960;2023-02-08T01:21:05;8.47;;;7.40;;
3149;SDS011;32503;47.748;8.960;2023-02-08T01:23:35;9.47;;;6.80;;
3149;SDS011;32503;47.748;8.960;2023-02-08T01:26:04;15.40;;;9.30;;
3149;SDS011;32503;47.748;8.960;2023-02-08T01:28:32;8.67;;;6.40;;
3149;SDS011;32503;47.748;8.960;2023-02-08T01:31:03;11.60;;;7.17;;
3149;SDS011;32503;47.748;8.960;2023-02-08T01:33:32;9.03;;;8.00;;
3149;SDS011;32503;47.748;8.960;2023-02-08T01:35:59;11.27;;;7.47;;
3149;SDS011;32503;47.748;8.960;2023-02-08T01:38:26;13.63;;;8.47;;
3149;SDS011;32503;47.748;8.960;2023-02-08T01:40:54;9.30;;;7.10;;
3149;SDS011;32503;47.748;8.960;2023-02-08T01:43:22;15.17;;;8.00;;
3149;SDS011;32503;47.748;8.960;2023-02-08T01:45:52;9.47;;;8.13;;
3149;SDS011;32503;47.748;8.960;2023-02-08T01:48:20;12.73;;;8.60;;
3149;SDS011;32503;47.748;8.960;2023-02-08T01:50:53;9.50;;;7.60;;
3149;SDS011;32503;47.748;8.960;2023-02-08T01:53:25;12.80;;;7.93;;
3149;SDS011;32503;47.748;8.960;2023-02-08T01:55:58;11.57;;;8.30;;
3149;SDS011;32503;47.748;8.960;2023-02-08T01:58:30;13.37;;;8.20;;
3149;SDS011;32503;47.748;8.960;2023-02-08T02:01:01;10.93;;;7.17;;
3149;SDS011;32503;47.748;8.960;2023-02-08T02:03:29;13.53;;;8.03;;
3149;SDS011;32503;47.748;8.960;2023-02-08T02:05:57;9.23;;;6.23;;
3149;SDS011;32503;47.748;8.960;2023-02-08T02:08:31;8.37;;;7.00;;
3149;SDS011;32503;47.748;8.960;2023-02-08T02:10:59;12.00;;;7.20;;
3149;SDS011;32503;47.748;8.960;2023-02-08T02:13:27;12.40;;;7.87;;
3149;SDS011;32503;47.748;8.960;2023-02-08T02:15:56;12.07;;;7.20;;
3149;SDS011;32503;47.748;8.960;2023-02-08T02:18:24;11.33;;;7.27;;
3149;SDS011;32503;47.748;8.960;2023-02-08T02:21:04;9.63;;;6.80;;
3149;SDS011;32503;47.748;8.960;2023-02-08T02:27:15;10.87;;;6.27;;
3149;SDS011;32503;47.748;8.960;2023-02-08T02:30:07;15.43;;;6.90;;
3149;SDS011;32503;47.748;8.960;2023-02-08T02:33:16;11.37;;;6.63;;
3149;SDS011;32503;47.748;8.960;2023-02-08T02:36:12;11.17;;;7.20;;
3149;SDS011;32503;47.748;8.960;2023-02-08T02:38:52;8.40;;;6.83;;
3149;SDS011;32503;47.748;8.960;2023-02-08T02:41:32;9.17;;;7.00;;
3149;SDS011;32503;47.748;8.960;2023-02-08T02:44:28;14.17;;;8.10;;
3149;SDS011;32503;47.748;8.960;2023-02-08T02:47:05;13.30;;;6.87;;
3149;SDS011;32503;47.748;8.960;2023-02-08T02:49:45;10.40;;;6.73;;
3149;SDS011;32503;47.748;8.960;2023-02-08T02:52:18;16.43;;;8.73;;
3149;SDS011;32503;47.748;8.960;2023-02-08T02:54:52;10.20;;;6.23;;
3149;SDS011;32503;47.748;8.960;2023-02-08T02:57:24;7.13;;;6.40;;
3149;SDS011;32503;47.748;8.960;2023-02-08T02:59:56;10.33;;;7.23;;
3149;SDS011;32503;47.748;8.960;2023-02-08T03:02:24;11.93;;;7.33;;
3149;SDS011;32503;47.748;8.960;2023-02-08T03:04:55;9.87;;;6.77;;
3149;SDS011;32503;47.748;8.960;2023-02-08T03:07:27;7.73;;;6.03;;
3149;SDS011;32503;47.748;8.960;2023-02-08T03:10:17;7.77;;;6.27;;
3149;SDS011;32503;47.748;8.960;2023-02-08T03:13:05;7.40;;;6.10;;
3149;SDS011;32503;47.748;8.960;2023-02-08T03:15:45;6.40;;;6.00;;
3149;SDS011;32503;47.748;8.960;2023-02-08T03:18:28;13.30;;;7.30;;
3149;SDS011;32503;47.748;8.960;2023-02-08T03:21:04;12.63;;;6.57;;
3149;SDS011;32503;47.748;8.960;2023-02-08T03:23:37;11.07;;;7.93;;
3149;SDS011;32503;47.748;8.960;2023-02-08T03:26:14;10.97;;;6.70;;
3149;SDS011;32503;47.748;8.960;2023-02-08T03:28:47;10.97;;;7.57;;
3149;SDS011;32503;47.748;8.960;2023-02-08T03:31:23;10.67;;;7.60;;
3149;SDS011;32503;47.748;8.960;2023-02-08T03:33:59;8.80;;;6.63;;
3149;SDS011;32503;47.748;8.960;2023-02-08T03:36:37;11.30;;;6.73;;
3149;SDS011;32503;47.748;8.960;2023-02-08T03:39:09;12.80;;;7.70;;
3149;SDS011;32503;47.748;8.960;2023-02-08T03:41:43;10.73;;;7.37;;
3149;SDS011;32503;47.748;8.960;2023-02-08T03:44:15;8.13;;;7.43;;
3149;SDS011;32503;47.748;8.960;2023-02-08T03:46:47;8.10;;;7.17;;
3149;SDS011;32503;47.748;8.960;2023-02-08T03:49:21;13.80;;;7.60;;
3149;SDS011;32503;47.748;8.960;2023-02-08T03:51:54;11.27;;;6.20;;
3149;SDS011;32503;47.748;8.960;2023-02-08T03:54:27;18.13;;;7.37;;
3149;SDS011;32503;47.748;8.960;2023-02-08T03:57:03;10.47;;;6.77;;
3149;SDS011;32503;47.748;8.960;2023-02-08T03:59:38;7.53;;;6.63;;
3149;SDS011;32503;47.748;8.960;2023-02-08T04:02:09;6.47;;;5.43;;
3149;SDS011;32503;47.748;8.960;2023-02-08T04:04:43;9.00;;;6.07;;
3149;SDS011;32503;47.748;8.960;2023-02-08T04:07:16;12.07;;;6.97;;
3149;SDS011;32503;47.748;8.960;2023-02-08T04:09:44;8.50;;;7.50;;
3149;SDS011;32503;47.748;8.960;2023-02-08T04:12:12;8.90;;;7.13;;
3149;SDS011;32503;47.748;8.960;2023-02-08T04:14:39;10.57;;;6.60;;
3149;SDS011;32503;47.748;8.960;2023-02-08T04:17:06;12.57;;;7.10;;
3149;SDS011;32503;47.748;8.960;2023-02-08T04:19:33;10.60;;;5.90;;
3149;SDS011;32503;47.748;8.960;2023-02-08T04:22:00;8.80;;;6.03;;
3149;SDS011;32503;47.748;8.960;2023-02-08T04:24:29;13.73;;;7.40;;
3149;SDS011;32503;47.748;8.960;2023-02-08T04:26:56;9.10;;;6.50;;
3149;SDS011;32503;47.748;8.960;2023-02-08T04:29:23;12.80;;;7.13;;
3149;SDS011;32503;47.748;8.960;2023-02-08T04:31:50;12.83;;;8.00;;
3149;SDS011;32503;47.748;8.960;2023-02-08T04:34:17;14.23;;;6.70;;
3149;SDS011;32503;47.748;8.960;2023-02-08T04:36:44;10.10;;;6.43;;
3149;SDS011;32503;47.748;8.960;2023-02-08T04:39:11;12.37;;;7.07;;
3149;SDS011;32503;47.748;8.960;2023-02-08T04:41:40;18.20;;;8.17;;
3149;SDS011;32503;47.748;8.960;2023-02-08T04:44:07;7.23;;;6.53;;
3149;SDS011;32503;47.748;8.960;2023-02-08T04:46:34;10.43;;;7.33;;
3149;SDS011;32503;47.748;8.960;2023-02-08T04:49:01;6.27;;;5.70;;
3149;SDS011;32503;47.748;8.960;2023-02-08T04:51:28;11.93;;;7.33;;
3149;SDS011;32503;47.748;8.960;2023-02-08T04:53:55;12.43;;;6.67;;
3149;SDS011;32503;47.748;8.960;2023-02-08T04:56:22;7.40;;;5.07;;
3149;SDS011;32503;47.748;8.960;2023-02-08T04:58:50;9.53;;;6.80;;
3149;SDS011;32503;47.748;8.960;2023-02-08T05:01:17;10.53;;;7.27;;
3149;SDS011;32503;47.748;8.960;2023-02-08T05:03:44;10.20;;;8.67;;
3149;SDS011;32503;47.748;8.960;2023-02-08T05:06:11;14.50;;;8.00;;
3149;SDS011;32503;47.748;8.960;2023-02-08T05:08:39;7.63;;;6.90;;
3149;SDS011;32503;47.748;8.960;2023-02-08T05:11:06;13.63;;;7.80;;
3149;SDS011;32503;47.748;8.960;2023-02-08T05:13:33;14.77;;;7.27;;
3149;SDS011;32503;47.748;8.960;2023-02-08T05:16:01;16.93;;;8.23;;
3149;SDS011;32503;47.748;8.960;2023-02-08T05:18:28;11.93;;;8.60;;
3149;SDS011;32503;47.748;8.960;2023-02-08T05:20:56;9.27;;;6.93;;
3149;SDS011;32503;47.748;8.960;2023-02-08T05:23:24;15.63;;;9.23;;
3149;SDS011;32503;47.748;8.960;2023-02-08T05:25:52;10.90;;;9.40;;
3149;SDS011;32503;47.748;8.960;2023-02-08T05:28:19;15.77;;;7.97;;
3149;SDS011;32503;47.748;8.960;2023-02-08T05:30:46;12.30;;;7.47;;
3149;SDS011;32503;47.748;8.960;2023-02-08T05:33:15;14.50;;;8.77;;
3149;SDS011;32503;47.748;8.960;2023-02-08T05:35:43;6.90;;;5.50;;
3149;SDS011;32503;47.748;8.960;2023-02-08T05:38:10;10.60;;;8.70;;
3149;SDS011;32503;47.748;8.960;2023-02-08T05:40:37;16.13;;;8.53;;
3149;SDS011;32503;47.748;8.960;2023-02-08T05:43:04;15.90;;;8.17;;
3149;SDS011;32503;47.748;8.960;2023-02-08T05:45:31;8.27;;;7.30;;
3149;SDS011;32503;47.748;8.960;2023-02-08T05:47:58;9.40;;;6.53;;
3149;SDS011;32503;47.748;8.960;2023-02-08T05:50:27;9.70;;;6.70;;
3149;SDS011;32503;47.748;8.960;2023-02-08T05:52:55;11.23;;;10.00;;
3149;SDS011;32503;47.748;8.960;2023-02-08T05:55:22;12.20;;;9.53;;
3149;SDS011;32503;47.748;8.960;2023-02-08T05:57:52;10.10;;;8.43;;
3149;SDS011;32503;47.748;8.960;2023-02-08T06:00:19;8.40;;;6.80;;
3149;SDS011;32503;47.748;8.960;2023-02-08T06:02:46;9.97;;;6.80;;
3149;SDS011;32503;47.748;8.960;2023-02-08T06:05:13;15.80;;;6.50;;
3149;SDS011;32503;47.748;8.960;2023-02-08T06:07:42;13.73;;;7.57;;
3149;SDS011;32503;47.748;8.960;2023-02-08T06:10:09;12.07;;;6.67;;
3149;SDS011;32503;47.748;8.960;2023-02-08T06:12:36;11.27;;;6.67;;
3149;SDS011;32503;47.748;8.960;2023-02-08T06:15:03;13.23;;;7.37;;
3149;SDS011;32503;47.748;8.960;2023-02-08T06:17:31;13.00;;;7.60;;
3149;SDS011;32503;47.748;8.960;2023-02-08T06:19:58;10.93;;;7.17;;
3149;SDS011;32503;47.748;8.960;2023-02-08T06:22:25;9.43;;;6.83;;
3149;SDS011;32503;47.748;8.960;2023-02-08T06:24:53;8.43;;;7.60;;
3149;SDS011;32503;47.748;8.960;2023-02-08T06:27:20;8.33;;;6.83;;
3149;SDS011;32503;47.748;8.960;2023-02-08T06:29:47;6.37;;;5.60;;
3149;SDS011;32503;47.748;8.960;2023-02-08T06:32:14;4.53;;;4.03;;
3149;SDS011;32503;47.748;8.960;2023-02-08T06:34:41;10.50;;;6.77;;
3149;SDS011;32503;47.748;8.960;2023-02-08T06:37:08;10.67;;;7.70;;
3149;SDS011;32503;47.748;8.960;2023-02-08T06:39:35;8.60;;;6.40;;
3149;SDS011;32503;47.748;8.960;2023-02-08T06:42:04;11.70;;;7.80;;
3149;SDS011;32503;47.748;8.960;2023-02-08T06:44:31;8.33;;;7.10;;
3149;SDS011;32503;47.748;8.960;2023-02-08T06:46:58;11.30;;;7.50;;
3149;SDS011;32503;47.748;8.960;2023-02-08T06:49:25;13.53;;;7.20;;
3149;SDS011;32503;47.748;8.960;2023-02-08T06:51:52;11.50;;;7.40;;
3149;SDS011;32503;47.748;8.960;2023-02-08T06:54:19;13.23;;;7.43;;
3149;SDS011;32503;47.748;8.960;2023-02-08T06:56:46;9.00;;;7.37;;
3149;SDS011;32503;47.748;8.960;2023-02-08T06:59:15;12.23;;;7.10;;
3149;SDS011;32503;47.748;8.960;2023-02-08T07:01:42;11.47;;;7.53;;
3149;SDS011;32503;47.748;8.960;2023-02-08T07:04:09;11.47;;;8.60;;
3149;SDS011;32503;47.748;8.960;2023-02-08T07:06:36;11.70;;;8.33;;
3149;SDS011;32503;47.748;8.960;2023-02-08T07:09:03;13.80;;;9.50;;
3149;SDS011;32503;47.748;8.960;2023-02-08T07:11:30;14.80;;;9.07;;
3149;SDS011;32503;47.748;8.960;2023-02-08T07:13:57;9.97;;;8.73;;
3149;SDS011;32503;47.748;8.960;2023-02-08T07:16:26;11.67;;;7.60;;
3149;SDS011;32503;47.748;8.960;2023-02-08T07:18:53;11.27;;;8.40;;
3149;SDS011;32503;47.748;8.960;2023-02-08T07:21:20;13.13;;;8.40;;
3149;SDS011;32503;47.748;8.960;2023-02-08T07:23:47;13.20;;;9.70;;
3149;SDS011;32503;47.748;8.960;2023-02-08T07:26:14;8.47;;;7.37;;
3149;SDS011;32503;47.748;8.960;2023-02-08T07:28:41;15.17;;;9.23;;
3149;SDS011;32503;47.748;8.960;2023-02-08T07:31:09;24.20;;;9.93;;
3149;SDS011;32503;47.748;8.960;2023-02-08T07:33:40;13.20;;;9.80;;
3149;SDS011;32503;47.748;8.960;2023-02-08T07:36:07;14.93;;;10.10;;
3149;SDS011;32503;47.748;8.960;2023-02-08T07:38:35;19.13;;;12.90;;
3149;SDS011;32503;47.748;8.960;2023-02-08T07:41:06;16.00;;;11.10;;
3149;SDS011;32503;47.748;8.960;2023-02-08T07:43:36;15.23;;;10.73;;
3149;SDS011;32503;47.748;8.960;2023-02-08T07:46:05;15.93;;;10.13;;
3149;SDS011;32503;47.748;8.960;2023-02-08T07:48:33;19.40;;;11.83;;
3149;SDS011;32503;47.748;8.960;2023-02-08T07:51:02;15.77;;;10.80;;
3149;SDS011;32503;47.748;8.960;2023-02-08T07:53:29;19.97;;;11.90;;
3149;SDS011;32503;47.748;8.960;2023-02-08T07:55:57;12.27;;;10.10;;
3149;SDS011;32503;47.748;8.960;2023-02-08T07:58:24;18.90;;;12.90;;
3149;SDS011;32503;47.748;8.960;2023-02-08T08:00:52;18.67;;;11.50;;
3149;SDS011;32503;47.748;8.960;2023-02-08T08:03:19;14.13;;;11.33;;
3149;SDS011;32503;47.748;8.960;2023-02-08T08:05:47;16.33;;;10.73;;
3149;SDS011;32503;47.748;8.960;2023-02-08T08:08:16;16.93;;;11.33;;
3149;SDS011;32503;47.748;8.960;2023-02-08T08:10:43;15.43;;;11.53;;
3149;SDS011;32503;47.748;8.960;2023-02-08T08:13:10;17.80;;;12.30;;
3149;SDS011;32503;47.748;8.960;2023-02-08T08:15:37;16.63;;;11.40;;
3149;SDS011;32503;47.748;8.960;2023-02-08T08:18:05;21.07;;;16.07;;
3149;SDS011;32503;47.748;8.960;2023-02-08T08:20:32;18.00;;;14.40;;
3149;SDS011;32503;47.748;8.960;2023-02-08T08:23:00;18.80;;;15.10;;
3149;SDS011;32503;47.748;8.960;2023-02-08T08:25:28;13.97;;;12.47;;
3149;SDS011;32503;47.748;8.960;2023-02-08T08:27:55;15.00;;;11.83;;
3149;SDS011;32503;47.748;8.960;2023-02-08T08:30:22;17.00;;;12.37;;
3149;SDS011;32503;47.748;8.960;2023-02-08T08:32:50;14.70;;;12.10;;
3149;SDS011;32503;47.748;8.960;2023-02-08T08:35:17;18.20;;;12.97;;
3149;SDS011;32503;47.748;8.960;2023-02-08T08:37:44;22.87;;;12.60;;
3149;SDS011;32503;47.748;8.960;2023-02-08T08:40:11;14.97;;;12.47;;
3149;SDS011;32503;47.748;8.960;2023-02-08T08:42:40;20.70;;;12.93;;
3149;SDS011;32503;47.748;8.960;2023-02-08T08:45:07;16.63;;;12.67;;
3149;SDS011;32503;47.748;8.960;2023-02-08T08:47:35;23.40;;;13.00;;
3149;SDS011;32503;47.748;8.960;2023-02-08T08:50:03;17.07;;;12.30;;
3149;SDS011;32503;47.748;8.960;2023-02-08T08:52:30;20.23;;;13.53;;
3149;SDS011;32503;47.748;8.960;2023-02-08T08:54:57;18.60;;;12.90;;
3149;SDS011;32503;47.748;8.960;2023-02-08T08:57:24;18.60;;;12.53;;
3149;SDS011;32503;47.748;8.960;2023-02-08T08:59:53;18.87;;;12.40;;
3149;SDS011;32503;47.748;8.960;2023-02-08T09:02:20;14.37;;;12.00;;
3149;SDS011;32503;47.748;8.960;2023-02-08T09:04:47;18.23;;;12.63;;
3149;SDS011;32503;47.748;8.960;2023-02-08T09:07:14;17.20;;;11.70;;
3149;SDS011;32503;47.748;8.960;2023-02-08T09:09:41;16.27;;;11.50;;
3149;SDS011;32503;47.748;8.960;2023-02-08T09:12:11;17.87;;;11.00;;
3149;SDS011;32503;47.748;8.960;2023-02-08T09:14:39;16.70;;;12.17;;
3149;SDS011;32503;47.748;8.960;2023-02-08T09:17:10;16.90;;;11.40;;
3149;SDS011;32503;47.748;8.960;2023-02-08T09:19:37;19.00;;;11.93;;
3149;SDS011;32503;47.748;8.960;2023-02-08T09:22:04;18.90;;;12.03;;
3149;SDS011;32503;47.748;8.960;2023-02-08T09:24:32;19.63;;;11.43;;
3149;SDS011;32503;47.748;8.960;2023-02-08T09:27:00;15.67;;;10.97;;
3149;SDS011;32503;47.748;8.960;2023-02-08T09:29:27;16.30;;;11.40;;
3149;SDS011;32503;47.748;8.960;2023-02-08T09:31:54;13.10;;;10.00;;
3149;SDS011;32503;47.748;8.960;2023-02-08T09:34:23;12.93;;;10.60;;
3149;SDS011;32503;47.748;8.960;2023-02-08T09:36:50;20.30;;;11.27;;
3149;SDS011;32503;47.748;8.960;2023-02-08T09:39:18;17.07;;;11.20;;
3149;SDS011;32503;47.748;8.960;2023-02-08T09:41:51;19.00;;;12.13;;
3149;SDS011;32503;47.748;8.960;2023-02-08T09:44:44;19.63;;;11.40;;
3149;SDS011;32503;47.748;8.960;2023-02-08T09:47:30;17.30;;;10.80;;
3149;SDS011;32503;47.748;8.960;2023-02-08T09:50:02;17.90;;;11.40;;
3149;SDS011;32503;47.748;8.960;2023-02-08T09:52:38;17.47;;;12.73;;
3149;SDS011;32503;47.748;8.960;2023-02-08T09:55:16;18.80;;;11.17;;
3149;SDS011;32503;47.748;8.960;2023-02-08T09:57:52;18.37;;;11.67;;
3149;SDS011;32503;47.748;8.960;2023-02-08T10:00:23;15.93;;;9.77;;
3149;SDS011;32503;47.748;8.960;2023-02-08T10:02:59;16.10;;;11.20;;
3149;SDS011;32503;47.748;8.960;2023-02-08T10:05:29;15.60;;;11.23;;
3149;SDS011;32503;47.748;8.960;2023-02-08T10:07:58;15.83;;;10.43;;
3149;SDS011;32503;47.748;8.960;2023-02-08T10:10:31;17.33;;;10.90;;
3149;SDS011;32503;47.748;8.960;2023-02-08T10:13:14;17.07;;;11.10;;
3149;SDS011;32503;47.748;8.960;2023-02-08T10:15:57;15.27;;;10.30;;
3149;SDS011;32503;47.748;8.960;2023-02-08T10:18:34;12.00;;;9.23;;
3149;SDS011;32503;47.748;8.960;2023-02-08T10:21:19;13.40;;;9.53;;
3149;SDS011;32503;47.748;8.960;2023-02-08T10:24:02;12.83;;;9.00;;
3149;SDS011;32503;47.748;8.960;2023-02-08T10:26:48;14.03;;;9.40;;
3149;SDS011;32503;47.748;8.960;2023-02-08T10:32:30;14.60;;;11.90;;
3149;SDS011;32503;47.748;8.960;2023-02-08T10:35:10;17.77;;;10.93;;
3149;SDS011;32503;47.748;8.960;2023-02-08T10:37:42;14.73;;;10.03;;
3149;SDS011;32503;47.748;8.960;2023-02-08T10:40:18;14.83;;;9.83;;
3149;SDS011;32503;47.748;8.960;2023-02-08T10:42:59;16.47;;;10.60;;
3149;SDS011;32503;47.748;8.960;2023-02-08T10:45:40;15.23;;;10.50;;
3149;SDS011;32503;47.748;8.960;2023-02-08T10:48:19;12.13;;;9.57;;
3149;SDS011;32503;47.748;8.960;2023-02-08T10:50:57;20.53;;;9.93;;
3149;SDS011;32503;47.748;8.960;2023-02-08T10:53:26;16.73;;;11.20;;
3149;SDS011;32503;47.748;8.960;2023-02-08T10:55:53;18.20;;;11.10;;
3149;SDS011;32503;47.748;8.960;2023-02-08T10:58:21;19.73;;;11.60;;
3149;SDS011;32503;47.748;8.960;2023-02-08T11:00:50;17.03;;;11.57;;
3149;SDS011;32503;47.748;8.960;2023-02-08T11:03:20;16.50;;;11.23;;
3149;SDS011;32503;47.748;8.960;2023-02-08T11:05:48;17.33;;;11.53;;
3149;SDS011;32503;47.748;8.960;2023-02-08T11:08:17;14.83;;;10.50;;
3149;SDS011;32503;47.748;8.960;2023-02-08T11:10:55;17.60;;;11.53;;
3149;SDS011;32503;47.748;8.960;2023-02-08T11:13:26;15.63;;;10.00;;
3149;SDS011;32503;47.748;8.960;2023-02-08T11:15:59;20.33;;;11.67;;
3149;SDS011;32503;47.748;8.960;2023-02-08T11:18:30;16.53;;;10.87;;
3149;SDS011;32503;47.748;8.960;2023-02-08T11:21:01;16.40;;;11.93;;
3149;SDS011;32503;47.748;8.960;2023-02-08T11:23:32;14.70;;;11.10;;
3149;SDS011;32503;47.748;8.960;2023-02-08T11:26:13;14.50;;;10.50;;
3149;SDS011;32503;47.748;8.960;2023-02-08T11:28:44;17.77;;;10.47;;
3149;SDS011;32503;47.748;8.960;2023-02-08T11:31:26;17.90;;;10.53;;
3149;SDS011;32503;47.748;8.960;2023-02-08T11:34:03;17.47;;;10.23;;
3149;SDS011;32503;47.748;8.960;2023-02-08T11:36:33;18.73;;;10.60;;
3149;SDS011;32503;47.748;8.960;2023-02-08T11:39:02;16.63;;;10.83;;
3149;SDS011;32503;47.748;8.960;2023-02-08T11:41:43;17.77;;;10.17;;
3149;SDS011;32503;47.748;8.960;2023-02-08T11:44:14;15.20;;;10.93;;
3149;SDS011;32503;47.748;8.960;2023-02-08T11:46:47;15.60;;;9.97;;
3149;SDS011;32503;47.748;8.960;2023-02-08T11:49:21;14.30;;;9.33;;
3149;SDS011;32503;47.748;8.960;2023-02-08T11:51:51;14.80;;;9.70;;
3149;SDS011;32503;47.748;8.960;2023-02-08T11:54:32;14.50;;;10.37;;
3149;SDS011;32503;47.748;8.960;2023-02-08T11:57:11;17.00;;;11.60;;
3149;SDS011;32503;47.748;8.960;2023-02-08T11:59:43;18.73;;;10.13;;
3149;SDS011;32503;47.748;8.960;2023-02-08T12:02:27;16.90;;;10.37;;
3149;SDS011;32503;47.748;8.960;2023-02-08T12:05:00;16.87;;;10.60;;
3149;SDS011;32503;47.748;8.960;2023-02-08T12:07:32;22.90;;;11.83;;
3149;SDS011;32503;47.748;8.960;2023-02-08T12:10:27;14.23;;;9.77;;
3149;SDS011;32503;47.748;8.960;2023-02-08T12:16:17;17.27;;;10.80;;
3149;SDS011;32503;47.748;8.960;2023-02-08T12:22:41;21.77;;;10.63;;
3149;SDS011;32503;47.748;8.960;2023-02-08T12:25:23;16.70;;;10.53;;
3149;SDS011;32503;47.748;8.960;2023-02-08T12:28:01;21.90;;;11.30;;
3149;SDS011;32503;47.748;8.960;2023-02-08T12:30:38;13.83;;;9.70;;
3149;SDS011;32503;47.748;8.960;2023-02-08T12:33:25;13.10;;;9.20;;
3149;SDS011;32503;47.748;8.960;2023-02-08T12:36:19;17.40;;;10.53;;
3149;SDS011;32503;47.748;8.960;2023-02-08T12:42:15;11.83;;;8.47;;
3149;SDS011;32503;47.748;8.960;2023-02-08T12:48:06;15.30;;;9.60;;
3149;SDS011;32503;47.748;8.960;2023-02-08T12:50:49;17.33;;;10.93;;
3149;SDS011;32503;47.748;8.960;2023-02-08T12:53:22;14.53;;;10.13;;
3149;SDS011;32503;47.748;8.960;2023-02-08T12:55:56;15.73;;;11.10;;
3149;SDS011;32503;47.748;8.960;2023-02-08T12:58:27;17.10;;;10.77;;
3149;SDS011;32503;47.748;8.960;2023-02-08T13:00:59;20.10;;;11.10;;
3149;SDS011;32503;47.748;8.960;2023-02-08T13:03:36;12.80;;;9.77;;
3149;SDS011;32503;47.748;8.960;2023-02-08T13:06:14;18.27;;;10.83;;
3149;SDS011;32503;47.748;8.960;2023-02-08T13:08:45;13.33;;;10.23;;
3149;SDS011;32503;47.748;8.960;2023-02-08T13:11:20;17.13;;;9.30;;
3149;SDS011;32503;47.748;8.960;2023-02-08T13:13:56;19.13;;;11.30;;
3149;SDS011;32503;47.748;8.960;2023-02-08T13:16:28;19.03;;;10.90;;
3149;SDS011;32503;47.748;8.960;2023-02-08T13:19:17;18.07;;;10.80;;
3149;SDS011;32503;47.748;8.960;2023-02-08T13:21:52;17.87;;;9.53;;
3149;SDS011;32503;47.748;8.960;2023-02-08T13:24:24;19.40;;;11.40;;
3149;SDS011;32503;47.748;8.960;2023-02-08T13:26:58;15.93;;;9.80;;
3149;SDS011;32503;47.748;8.960;2023-02-08T13:29:25;16.07;;;9.90;;
3149;SDS011;32503;47.748;8.960;2023-02-08T13:31:55;16.13;;;9.00;;
3149;SDS011;32503;47.748;8.960;2023-02-08T13:34:28;14.20;;;9.97;;
3149;SDS011;32503;47.748;8.960;2023-02-08T13:37:00;16.83;;;9.87;;
3149;SDS011;32503;47.748;8.960;2023-02-08T13:39:31;16.43;;;10.33;;
3149;SDS011;32503;47.748;8.960;2023-02-08T13:42:02;14.17;;;9.37;;
3149;SDS011;32503;47.748;8.960;2023-02-08T13:44:33;9.97;;;8.23;;
3149;SDS011;32503;47.748;8.960;2023-02-08T13:47:03;18.20;;;10.20;;
3149;SDS011;32503;47.748;8.960;2023-02-08T13:49:42;15.27;;;8.97;;
3149;SDS011;32503;47.748;8.960;2023-02-08T13:58:26;14.97;;;9.57;;
3149;SDS011;32503;47.748;8.960;2023-02-08T14:01:14;13.20;;;9.93;;
3149;SDS011;32503;47.748;8.960;2023-02-08T14:06:55;13.77;;;9.50;;
3149;SDS011;32503;47.748;8.960;2023-02-08T14:09:30;19.03;;;11.17;;
3149;SDS011;32503;47.748;8.960;2023-02-08T14:12:11;15.23;;;9.10;;
3149;SDS011;32503;47.748;8.960;2023-02-08T14:14:59;14.47;;;8.73;;
3149;SDS011;32503;47.748;8.960;2023-02-08T14:17:50;14.77;;;8.73;;
3149;SDS011;32503;47.748;8.960;2023-02-08T14:20:20;14.83;;;9.60;;
3149;SDS011;32503;47.748;8.960;2023-02-08T14:22:55;10.53;;;8.80;;
3149;SDS011;32503;47.748;8.960;2023-02-08T14:25:25;9.23;;;8.20;;
3149;SDS011;32503;47.748;8.960;2023-02-08T14:28:02;11.40;;;8.20;;
3149;SDS011;32503;47.748;8.960;2023-02-08T14:30:32;14.73;;;9.20;;
3149;SDS011;32503;47.748;8.960;2023-02-08T14:33:09;15.90;;;8.27;;
3149;SDS011;32503;47.748;8.960;2023-02-08T14:35:49;11.13;;;8.60;;
3149;SDS011;32503;47.748;8.960;2023-02-08T14:41:49;13.53;;;8.50;;
3149;SDS011;32503;47.748;8.960;2023-02-08T14:50:52;11.67;;;8.33;;
3149;SDS011;32503;47.748;8.960;2023-02-08T14:53:30;11.20;;;8.50;;
3149;SDS011;32503;47.748;8.960;2023-02-08T14:56:06;11.00;;;8.30;;
3149;SDS011;32503;47.748;8.960;2023-02-08T14:58:45;12.13;;;7.60;;
3149;SDS011;32503;47.748;8.960;2023-02-08T15:01:17;11.93;;;8.33;;
3149;SDS011;32503;47.748;8.960;2023-02-08T15:03:47;15.30;;;9.33;;
3149;SDS011;32503;47.748;8.960;2023-02-08T15:09:24;13.77;;;8.83;;
3149;SDS011;32503;47.748;8.960;2023-02-08T15:11:58;12.93;;;8.27;;
3149;SDS011;32503;47.748;8.960;2023-02-08T15:14:29;13.93;;;8.13;;
3149;SDS011;32503;47.748;8.960;2023-02-08T15:16:59;12.83;;;8.63;;
3149;SDS011;32503;47.748;8.960;2023-02-08T15:19:28;12.57;;;7.67;;
3149;SDS011;32503;47.748;8.960;2023-02-08T15:24:59;13.33;;;8.23;;
3149;SDS011;32503;47.748;8.960;2023-02-08T15:27:31;12.23;;;8.37;;
3149;SDS011;32503;47.748;8.960;2023-02-08T15:29:59;19.80;;;8.90;;
3149;SDS011;32503;47.748;8.960;2023-02-08T15:32:27;15.20;;;8.77;;
3149;SDS011;32503;47.748;8.960;2023-02-08T15:34:56;13.70;;;8.57;;
3149;SDS011;32503;47.748;8.960;2023-02-08T15:37:26;11.33;;;8.67;;
3149;SDS011;32503;47.748;8.960;2023-02-08T15:39:58;10.90;;;8.00;;
3149;SDS011;32503;47.748;8.960;2023-02-08T15:42:28;12.30;;;7.53;;
3149;SDS011;32503;47.748;8.960;2023-02-08T15:44:59;10.70;;;8.07;;
3149;SDS011;32503;47.748;8.960;2023-02-08T15:47:29;11.47;;;8.03;;
3149;SDS011;32503;47.748;8.960;2023-02-08T15:50:00;11.40;;;8.67;;
3149;SDS011;32503;47.748;8.960;2023-02-08T15:52:31;12.17;;;8.30;;
3149;SDS011;32503;47.748;8.960;2023-02-08T15:55:01;22.07;;;11.27;;
3149;SDS011;32503;47.748;8.960;2023-02-08T15:57:34;9.00;;;6.97;;